sensor_id;sensor_type;location;lat;lon;timestamp;P1;durP1;ratioP1;P2;durP2;ratioP2
48526;SDS011;34317;51.660;5.824;2023-03-23T00:01:49;5.00;;;2.53;;
48526;SDS011;34317;51.660;5.824;2023-03-23T00:04:16;4.47;;;2.40;;
48526;SDS011;34317;51.660;5.824;2023-03-23T00:06:42;5.72;;;2.95;;
48526;SDS011;34317;51.660;5.824;2023-03-23T00:09:11;4.43;;;3.00;;
48526;SDS011;34317;51.660;5.824;2023-03-23T00:11:41;4.20;;;2.72;;
48526;SDS011;34317;51.660;5.824;2023-03-23T00:14:08;4.70;;;2.53;;
48526;SDS011;34317;51.660;5.824;2023-03-23T00:16:39;6.90;;;2.75;;
48526;SDS011;34317;51.660;5.824;2023-03-23T00:19:08;3.88;;;2.65;;
48526;SDS011;34317;51.660;5.824;2023-03-23T00:21:36;4.43;;;2.50;;
48526;SDS011;34317;51.660;5.824;2023-03-23T00:24:08;4.82;;;2.72;;
48526;SDS011;34317;51.660;5.824;2023-03-23T00:26:37;6.88;;;2.78;;
48526;SDS011;34317;51.660;5.824;2023-03-23T00:29:24;4.97;;;2.58;;
48526;SDS011;34317;51.660;5.824;2023-03-23T00:36:45;4.63;;;2.38;;
48526;SDS011;34317;51.660;5.824;2023-03-23T00:39:13;5.20;;;2.80;;
48526;SDS011;34317;51.660;5.824;2023-03-23T00:41:42;4.68;;;2.88;;
48526;SDS011;34317;51.660;5.824;2023-03-23T00:44:10;4.97;;;3.03;;
48526;SDS011;34317;51.660;5.824;2023-03-23T00:46:46;5.32;;;3.00;;
48526;SDS011;34317;51.660;5.824;2023-03-23T00:49:15;5.05;;;2.63;;
48526;SDS011;34317;51.660;5.824;2023-03-23T00:51:42;5.78;;;2.80;;
48526;SDS011;34317;51.660;5.824;2023-03-23T00:54:09;4.57;;;2.75;;
48526;SDS011;34317;51.660;5.824;2023-03-23T00:56:36;4.32;;;2.80;;
48526;SDS011;34317;51.660;5.824;2023-03-23T00:59:03;5.82;;;2.92;;
48526;SDS011;34317;51.660;5.824;2023-03-23T01:01:29;4.75;;;2.90;;
48526;SDS011;34317;51.660;5.824;2023-03-23T01:03:57;5.70;;;2.70;;
48526;SDS011;34317;51.660;5.824;2023-03-23T01:06:26;4.13;;;2.75;;
48526;SDS011;34317;51.660;5.824;2023-03-23T01:08:54;6.57;;;2.90;;
48526;SDS011;34317;51.660;5.824;2023-03-23T01:11:20;5.13;;;2.65;;
48526;SDS011;34317;51.660;5.824;2023-03-23T01:13:46;3.95;;;2.75;;
48526;SDS011;34317;51.660;5.824;2023-03-23T01:16:12;4.35;;;2.78;;
48526;SDS011;34317;51.660;5.824;2023-03-23T01:18:39;7.60;;;2.92;;
48526;SDS011;34317;51.660;5.824;2023-03-23T01:21:09;4.80;;;2.65;;
48526;SDS011;34317;51.660;5.824;2023-03-23T01:23:38;5.78;;;3.20;;
48526;SDS011;34317;51.660;5.824;2023-03-23T01:26:24;4.28;;;3.08;;
48526;SDS011;34317;51.660;5.824;2023-03-23T01:28:52;7.53;;;2.72;;
48526;SDS011;34317;51.660;5.824;2023-03-23T01:31:19;5.32;;;3.10;;
48526;SDS011;34317;51.660;5.824;2023-03-23T01:33:48;4.10;;;3.00;;
48526;SDS011;34317;51.660;5.824;2023-03-23T01:36:21;7.00;;;3.30;;
48526;SDS011;34317;51.660;5.824;2023-03-23T01:39:02;4.82;;;2.70;;
48526;SDS011;34317;51.660;5.824;2023-03-23T01:41:30;4.80;;;2.90;;
48526;SDS011;34317;51.660;5.824;2023-03-23T01:44:04;3.97;;;2.70;;
48526;SDS011;34317;51.660;5.824;2023-03-23T01:46:39;7.13;;;2.97;;
48526;SDS011;34317;51.660;5.824;2023-03-23T01:49:10;5.65;;;2.80;;
48526;SDS011;34317;51.660;5.824;2023-03-23T01:51:41;4.68;;;2.92;;
48526;SDS011;34317;51.660;5.824;2023-03-23T01:54:13;4.60;;;2.83;;
48526;SDS011;34317;51.660;5.824;2023-03-23T01:57:05;4.38;;;2.90;;
48526;SDS011;34317;51.660;5.824;2023-03-23T01:59:36;4.18;;;2.97;;
48526;SDS011;34317;51.660;5.824;2023-03-23T02:02:18;4.55;;;2.88;;
48526;SDS011;34317;51.660;5.824;2023-03-23T02:04:48;5.32;;;2.90;;
48526;SDS011;34317;51.660;5.824;2023-03-23T02:07:15;5.00;;;2.65;;
48526;SDS011;34317;51.660;5.824;2023-03-23T02:09:44;4.93;;;2.88;;
48526;SDS011;34317;51.660;5.824;2023-03-23T02:12:10;4.65;;;2.90;;
48526;SDS011;34317;51.660;5.824;2023-03-23T02:14:38;5.03;;;2.92;;
48526;SDS011;34317;51.660;5.824;2023-03-23T02:17:05;6.00;;;3.05;;
48526;SDS011;34317;51.660;5.824;2023-03-23T02:36:16;5.07;;;2.70;;
48526;SDS011;34317;51.660;5.824;2023-03-23T02:38:57;5.30;;;2.97;;
48526;SDS011;34317;51.660;5.824;2023-03-23T02:41:31;5.50;;;2.70;;
48526;SDS011;34317;51.660;5.824;2023-03-23T02:44:02;5.22;;;2.50;;
48526;SDS011;34317;51.660;5.824;2023-03-23T02:46:29;4.15;;;2.58;;
48526;SDS011;34317;51.660;5.824;2023-03-23T02:48:56;3.97;;;2.83;;
48526;SDS011;34317;51.660;5.824;2023-03-23T02:51:24;4.25;;;2.50;;
48526;SDS011;34317;51.660;5.824;2023-03-23T02:53:51;3.83;;;2.90;;
48526;SDS011;34317;51.660;5.824;2023-03-23T02:56:20;4.32;;;2.83;;
48526;SDS011;34317;51.660;5.824;2023-03-23T02:58:50;4.07;;;2.60;;
48526;SDS011;34317;51.660;5.824;2023-03-23T03:03:52;4.20;;;2.63;;
48526;SDS011;34317;51.660;5.824;2023-03-23T03:11:42;5.47;;;3.20;;
48526;SDS011;34317;51.660;5.824;2023-03-23T03:14:17;3.60;;;2.45;;
48526;SDS011;34317;51.660;5.824;2023-03-23T03:16:52;3.85;;;2.90;;
48526;SDS011;34317;51.660;5.824;2023-03-23T03:22:06;5.70;;;3.08;;
48526;SDS011;34317;51.660;5.824;2023-03-23T03:24:38;4.13;;;2.83;;
48526;SDS011;34317;51.660;5.824;2023-03-23T03:27:10;5.15;;;2.60;;
48526;SDS011;34317;51.660;5.824;2023-03-23T03:29:55;4.43;;;2.65;;
48526;SDS011;34317;51.660;5.824;2023-03-23T03:32:28;5.88;;;3.00;;
48526;SDS011;34317;51.660;5.824;2023-03-23T03:35:05;3.97;;;3.13;;
48526;SDS011;34317;51.660;5.824;2023-03-23T03:37:35;4.85;;;2.85;;
48526;SDS011;34317;51.660;5.824;2023-03-23T03:40:07;5.20;;;3.15;;
48526;SDS011;34317;51.660;5.824;2023-03-23T03:42:39;4.80;;;2.95;;
48526;SDS011;34317;51.660;5.824;2023-03-23T03:45:08;5.25;;;3.10;;
48526;SDS011;34317;51.660;5.824;2023-03-23T03:47:36;5.50;;;2.85;;
48526;SDS011;34317;51.660;5.824;2023-03-23T03:50:03;4.22;;;2.83;;
48526;SDS011;34317;51.660;5.824;2023-03-23T03:52:30;5.03;;;3.13;;
48526;SDS011;34317;51.660;5.824;2023-03-23T03:54:58;5.68;;;3.17;;
48526;SDS011;34317;51.660;5.824;2023-03-23T03:57:24;5.15;;;3.03;;
48526;SDS011;34317;51.660;5.824;2023-03-23T03:59:56;5.55;;;2.88;;
48526;SDS011;34317;51.660;5.824;2023-03-23T04:02:22;5.38;;;3.10;;
48526;SDS011;34317;51.660;5.824;2023-03-23T04:04:51;4.28;;;2.90;;
48526;SDS011;34317;51.660;5.824;2023-03-23T04:07:18;4.30;;;2.95;;
48526;SDS011;34317;51.660;5.824;2023-03-23T04:09:45;4.10;;;2.92;;
48526;SDS011;34317;51.660;5.824;2023-03-23T04:12:14;7.60;;;3.20;;
48526;SDS011;34317;51.660;5.824;2023-03-23T04:17:36;4.03;;;2.60;;
48526;SDS011;34317;51.660;5.824;2023-03-23T04:20:04;4.72;;;2.83;;
48526;SDS011;34317;51.660;5.824;2023-03-23T04:22:39;5.30;;;2.70;;
48526;SDS011;34317;51.660;5.824;2023-03-23T04:25:09;4.32;;;2.53;;
48526;SDS011;34317;51.660;5.824;2023-03-23T04:27:39;6.15;;;2.70;;
48526;SDS011;34317;51.660;5.824;2023-03-23T04:30:10;6.55;;;2.85;;
48526;SDS011;34317;51.660;5.824;2023-03-23T04:32:44;5.43;;;2.50;;
48526;SDS011;34317;51.660;5.824;2023-03-23T04:35:14;6.60;;;2.38;;
48526;SDS011;34317;51.660;5.824;2023-03-23T04:37:46;6.38;;;2.42;;
48526;SDS011;34317;51.660;5.824;2023-03-23T04:40:16;4.80;;;2.20;;
48526;SDS011;34317;51.660;5.824;2023-03-23T04:42:52;7.75;;;2.13;;
48526;SDS011;34317;51.660;5.824;2023-03-23T04:45:46;7.28;;;2.17;;
48526;SDS011;34317;51.660;5.824;2023-03-23T04:48:17;7.50;;;2.22;;
48526;SDS011;34317;51.660;5.824;2023-03-23T04:50:57;6.82;;;2.03;;
48526;SDS011;34317;51.660;5.824;2023-03-23T04:53:29;5.78;;;1.90;;
48526;SDS011;34317;51.660;5.824;2023-03-23T04:55:56;7.18;;;2.10;;
48526;SDS011;34317;51.660;5.824;2023-03-23T04:58:23;5.68;;;2.08;;
48526;SDS011;34317;51.660;5.824;2023-03-23T05:01:03;5.35;;;1.70;;
48526;SDS011;34317;51.660;5.824;2023-03-23T05:03:33;5.40;;;1.80;;
48526;SDS011;34317;51.660;5.824;2023-03-23T05:06:03;4.60;;;1.90;;
48526;SDS011;34317;51.660;5.824;2023-03-23T05:08:30;6.40;;;1.52;;
48526;SDS011;34317;51.660;5.824;2023-03-23T05:10:59;5.78;;;1.70;;
48526;SDS011;34317;51.660;5.824;2023-03-23T05:13:28;6.15;;;1.75;;
48526;SDS011;34317;51.660;5.824;2023-03-23T05:15:57;5.68;;;1.70;;
48526;SDS011;34317;51.660;5.824;2023-03-23T05:18:23;5.38;;;1.92;;
48526;SDS011;34317;51.660;5.824;2023-03-23T05:20:49;5.93;;;1.92;;
48526;SDS011;34317;51.660;5.824;2023-03-23T05:23:20;5.13;;;1.60;;
48526;SDS011;34317;51.660;5.824;2023-03-23T05:25:57;9.35;;;1.90;;
48526;SDS011;34317;51.660;5.824;2023-03-23T05:28:27;5.50;;;1.42;;
48526;SDS011;34317;51.660;5.824;2023-03-23T05:31:01;5.45;;;1.55;;
48526;SDS011;34317;51.660;5.824;2023-03-23T05:33:31;8.07;;;1.95;;
48526;SDS011;34317;51.660;5.824;2023-03-23T05:36:15;5.95;;;1.70;;
48526;SDS011;34317;51.660;5.824;2023-03-23T05:39:00;8.27;;;1.85;;
48526;SDS011;34317;51.660;5.824;2023-03-23T05:41:44;8.20;;;1.80;;
48526;SDS011;34317;51.660;5.824;2023-03-23T05:44:10;4.28;;;1.58;;
48526;SDS011;34317;51.660;5.824;2023-03-23T05:46:46;8.88;;;2.13;;
48526;SDS011;34317;51.660;5.824;2023-03-23T05:49:13;8.48;;;1.88;;
48526;SDS011;34317;51.660;5.824;2023-03-23T05:51:42;5.93;;;1.67;;
48526;SDS011;34317;51.660;5.824;2023-03-23T05:54:11;4.07;;;1.60;;
48526;SDS011;34317;51.660;5.824;2023-03-23T05:56:38;6.40;;;1.48;;
48526;SDS011;34317;51.660;5.824;2023-03-23T05:59:15;5.22;;;2.20;;
48526;SDS011;34317;51.660;5.824;2023-03-23T06:01:44;5.78;;;1.50;;
48526;SDS011;34317;51.660;5.824;2023-03-23T06:04:10;7.57;;;1.95;;
48526;SDS011;34317;51.660;5.824;2023-03-23T06:06:48;4.97;;;1.90;;
48526;SDS011;34317;51.660;5.824;2023-03-23T06:09:15;4.75;;;1.80;;
48526;SDS011;34317;51.660;5.824;2023-03-23T06:12:08;10.18;;;2.20;;
48526;SDS011;34317;51.660;5.824;2023-03-23T06:14:51;5.88;;;2.05;;
48526;SDS011;34317;51.660;5.824;2023-03-23T06:17:24;5.82;;;2.20;;
48526;SDS011;34317;51.660;5.824;2023-03-23T06:19:52;5.90;;;2.10;;
48526;SDS011;34317;51.660;5.824;2023-03-23T06:22:20;6.13;;;2.10;;
48526;SDS011;34317;51.660;5.824;2023-03-23T06:25:04;5.93;;;2.40;;
48526;SDS011;34317;51.660;5.824;2023-03-23T06:27:39;8.98;;;2.20;;
48526;SDS011;34317;51.660;5.824;2023-03-23T06:30:07;6.63;;;2.30;;
48526;SDS011;34317;51.660;5.824;2023-03-23T06:32:34;6.65;;;2.30;;
48526;SDS011;34317;51.660;5.824;2023-03-23T06:35:02;4.45;;;2.28;;
48526;SDS011;34317;51.660;5.824;2023-03-23T06:37:40;5.53;;;2.00;;
48526;SDS011;34317;51.660;5.824;2023-03-23T06:40:15;4.57;;;2.03;;
48526;SDS011;34317;51.660;5.824;2023-03-23T06:42:50;8.02;;;2.40;;
48526;SDS011;34317;51.660;5.824;2023-03-23T06:45:34;6.90;;;2.20;;
48526;SDS011;34317;51.660;5.824;2023-03-23T06:48:32;9.38;;;2.00;;
48526;SDS011;34317;51.660;5.824;2023-03-23T06:50:59;5.43;;;2.08;;
48526;SDS011;34317;51.660;5.824;2023-03-23T06:53:27;6.68;;;2.05;;
48526;SDS011;34317;51.660;5.824;2023-03-23T06:55:55;4.40;;;1.77;;
48526;SDS011;34317;51.660;5.824;2023-03-23T06:58:22;6.57;;;2.25;;
48526;SDS011;34317;51.660;5.824;2023-03-23T07:00:56;6.18;;;2.33;;
48526;SDS011;34317;51.660;5.824;2023-03-23T07:03:28;6.68;;;2.35;;
48526;SDS011;34317;51.660;5.824;2023-03-23T07:05:55;6.70;;;2.00;;
48526;SDS011;34317;51.660;5.824;2023-03-23T07:08:25;8.43;;;2.20;;
48526;SDS011;34317;51.660;5.824;2023-03-23T07:10:52;9.52;;;2.05;;
48526;SDS011;34317;51.660;5.824;2023-03-23T07:13:23;7.45;;;2.10;;
48526;SDS011;34317;51.660;5.824;2023-03-23T07:15:53;5.80;;;2.30;;
48526;SDS011;34317;51.660;5.824;2023-03-23T07:18:20;5.43;;;1.88;;
48526;SDS011;34317;51.660;5.824;2023-03-23T07:20:49;4.93;;;2.03;;
48526;SDS011;34317;51.660;5.824;2023-03-23T07:23:18;7.32;;;2.00;;
48526;SDS011;34317;51.660;5.824;2023-03-23T07:25:51;7.00;;;2.13;;
48526;SDS011;34317;51.660;5.824;2023-03-23T07:28:22;6.30;;;1.85;;
48526;SDS011;34317;51.660;5.824;2023-03-23T07:30:50;5.25;;;2.10;;
48526;SDS011;34317;51.660;5.824;2023-03-23T07:33:16;7.72;;;2.38;;
48526;SDS011;34317;51.660;5.824;2023-03-23T07:35:43;8.38;;;2.20;;
48526;SDS011;34317;51.660;5.824;2023-03-23T07:38:13;5.65;;;1.80;;
48526;SDS011;34317;51.660;5.824;2023-03-23T07:40:42;3.95;;;1.67;;
48526;SDS011;34317;51.660;5.824;2023-03-23T07:43:14;8.68;;;1.80;;
48526;SDS011;34317;51.660;5.824;2023-03-23T07:46:13;5.53;;;2.00;;
48526;SDS011;34317;51.660;5.824;2023-03-23T07:48:47;9.85;;;2.33;;
48526;SDS011;34317;51.660;5.824;2023-03-23T07:51:15;7.72;;;1.90;;
48526;SDS011;34317;51.660;5.824;2023-03-23T07:53:50;9.32;;;1.75;;
48526;SDS011;34317;51.660;5.824;2023-03-23T07:56:37;4.78;;;1.80;;
48526;SDS011;34317;51.660;5.824;2023-03-23T07:59:25;6.28;;;1.80;;
48526;SDS011;34317;51.660;5.824;2023-03-23T08:01:53;2.15;;;1.30;;
48526;SDS011;34317;51.660;5.824;2023-03-23T08:04:44;4.50;;;1.55;;
48526;SDS011;34317;51.660;5.824;2023-03-23T08:07:34;4.82;;;1.60;;
48526;SDS011;34317;51.660;5.824;2023-03-23T08:10:37;2.35;;;1.00;;
48526;SDS011;34317;51.660;5.824;2023-03-23T08:13:17;1.73;;;0.73;;
48526;SDS011;34317;51.660;5.824;2023-03-23T08:16:02;3.90;;;1.00;;
48526;SDS011;34317;51.660;5.824;2023-03-23T08:18:52;1.67;;;0.70;;
48526;SDS011;34317;51.660;5.824;2023-03-23T08:21:40;2.05;;;0.85;;
48526;SDS011;34317;51.660;5.824;2023-03-23T08:24:33;3.00;;;0.70;;
48526;SDS011;34317;51.660;5.824;2023-03-23T08:27:22;2.33;;;0.90;;
48526;SDS011;34317;51.660;5.824;2023-03-23T08:30:05;1.85;;;0.90;;
48526;SDS011;34317;51.660;5.824;2023-03-23T08:32:51;1.95;;;0.82;;
48526;SDS011;34317;51.660;5.824;2023-03-23T08:35:36;2.27;;;0.80;;
48526;SDS011;34317;51.660;5.824;2023-03-23T08:38:31;1.83;;;0.80;;
48526;SDS011;34317;51.660;5.824;2023-03-23T08:41:27;2.10;;;0.80;;
48526;SDS011;34317;51.660;5.824;2023-03-23T08:44:18;2.15;;;0.80;;
48526;SDS011;34317;51.660;5.824;2023-03-23T08:46:53;3.15;;;1.10;;
48526;SDS011;34317;51.660;5.824;2023-03-23T08:49:41;4.30;;;1.15;;
48526;SDS011;34317;51.660;5.824;2023-03-23T08:52:42;4.32;;;1.23;;
48526;SDS011;34317;51.660;5.824;2023-03-23T08:55:35;3.80;;;1.30;;
48526;SDS011;34317;51.660;5.824;2023-03-23T08:58:27;2.45;;;1.00;;
48526;SDS011;34317;51.660;5.824;2023-03-23T09:01:06;4.30;;;1.13;;
48526;SDS011;34317;51.660;5.824;2023-03-23T09:03:43;4.72;;;1.40;;
48526;SDS011;34317;51.660;5.824;2023-03-23T09:06:27;3.83;;;1.23;;
48526;SDS011;34317;51.660;5.824;2023-03-23T09:08:54;3.97;;;1.02;;
48526;SDS011;34317;51.660;5.824;2023-03-23T09:11:21;2.55;;;0.98;;
48526;SDS011;34317;51.660;5.824;2023-03-23T09:13:47;3.30;;;1.05;;
48526;SDS011;34317;51.660;5.824;2023-03-23T09:16:13;2.35;;;0.90;;
48526;SDS011;34317;51.660;5.824;2023-03-23T09:18:40;3.08;;;0.85;;
48526;SDS011;34317;51.660;5.824;2023-03-23T09:21:06;5.70;;;1.13;;
48526;SDS011;34317;51.660;5.824;2023-03-23T09:23:32;4.35;;;1.33;;
48526;SDS011;34317;51.660;5.824;2023-03-23T09:26:02;3.78;;;1.00;;
48526;SDS011;34317;51.660;5.824;2023-03-23T09:28:29;5.55;;;0.98;;
48526;SDS011;34317;51.660;5.824;2023-03-23T09:30:56;5.10;;;1.13;;
48526;SDS011;34317;51.660;5.824;2023-03-23T09:33:23;5.35;;;1.25;;
48526;SDS011;34317;51.660;5.824;2023-03-23T09:35:50;3.78;;;1.10;;
48526;SDS011;34317;51.660;5.824;2023-03-23T09:38:16;4.13;;;1.05;;
48526;SDS011;34317;51.660;5.824;2023-03-23T09:40:49;6.05;;;1.15;;
48526;SDS011;34317;51.660;5.824;2023-03-23T09:46:42;3.20;;;1.08;;
48526;SDS011;34317;51.660;5.824;2023-03-23T09:49:17;4.40;;;1.30;;
48526;SDS011;34317;51.660;5.824;2023-03-23T09:52:16;5.95;;;1.10;;
48526;SDS011;34317;51.660;5.824;2023-03-23T09:54:48;2.83;;;1.17;;
48526;SDS011;34317;51.660;5.824;2023-03-23T09:57:25;2.55;;;1.10;;
48526;SDS011;34317;51.660;5.824;2023-03-23T10:02:43;3.00;;;1.00;;
48526;SDS011;34317;51.660;5.824;2023-03-23T10:05:36;4.82;;;1.50;;
48526;SDS011;34317;51.660;5.824;2023-03-23T10:16:42;4.35;;;1.23;;
48526;SDS011;34317;51.660;5.824;2023-03-23T10:19:18;2.80;;;1.10;;
48526;SDS011;34317;51.660;5.824;2023-03-23T10:21:55;5.40;;;1.33;;
48526;SDS011;34317;51.660;5.824;2023-03-23T10:24:31;4.78;;;1.30;;
48526;SDS011;34317;51.660;5.824;2023-03-23T10:27:11;4.28;;;1.33;;
48526;SDS011;34317;51.660;5.824;2023-03-23T10:29:55;5.30;;;1.10;;
48526;SDS011;34317;51.660;5.824;2023-03-23T10:32:39;3.40;;;1.20;;
48526;SDS011;34317;51.660;5.824;2023-03-23T10:35:09;3.17;;;1.40;;
48526;SDS011;34317;51.660;5.824;2023-03-23T10:37:41;4.88;;;1.40;;
48526;SDS011;34317;51.660;5.824;2023-03-23T10:40:14;5.65;;;1.20;;
48526;SDS011;34317;51.660;5.824;2023-03-23T10:42:43;5.05;;;1.50;;
48526;SDS011;34317;51.660;5.824;2023-03-23T10:45:12;6.00;;;1.60;;
48526;SDS011;34317;51.660;5.824;2023-03-23T10:47:46;3.65;;;1.40;;
48526;SDS011;34317;51.660;5.824;2023-03-23T10:50:17;3.30;;;1.27;;
48526;SDS011;34317;51.660;5.824;2023-03-23T10:52:49;4.55;;;1.60;;
48526;SDS011;34317;51.660;5.824;2023-03-23T10:55:18;5.95;;;1.38;;
48526;SDS011;34317;51.660;5.824;2023-03-23T11:00:43;3.53;;;1.35;;
48526;SDS011;34317;51.660;5.824;2023-03-23T11:05:47;5.35;;;1.50;;
48526;SDS011;34317;51.660;5.824;2023-03-23T11:08:20;5.10;;;1.40;;
48526;SDS011;34317;51.660;5.824;2023-03-23T11:10:55;5.10;;;1.90;;
48526;SDS011;34317;51.660;5.824;2023-03-23T11:13:29;5.20;;;1.55;;
48526;SDS011;34317;51.660;5.824;2023-03-23T11:15:57;7.32;;;1.88;;
48526;SDS011;34317;51.660;5.824;2023-03-23T11:18:25;5.13;;;1.52;;
48526;SDS011;34317;51.660;5.824;2023-03-23T11:21:12;3.72;;;1.50;;
48526;SDS011;34317;51.660;5.824;2023-03-23T11:23:40;4.60;;;1.60;;
48526;SDS011;34317;51.660;5.824;2023-03-23T11:26:13;3.75;;;1.50;;
48526;SDS011;34317;51.660;5.824;2023-03-23T11:31:40;3.78;;;1.70;;
48526;SDS011;34317;51.660;5.824;2023-03-23T11:34:09;5.80;;;1.50;;
48526;SDS011;34317;51.660;5.824;2023-03-23T11:36:49;7.85;;;2.13;;
48526;SDS011;34317;51.660;5.824;2023-03-23T11:41:50;6.15;;;1.70;;
48526;SDS011;34317;51.660;5.824;2023-03-23T11:44:17;6.05;;;1.60;;
48526;SDS011;34317;51.660;5.824;2023-03-23T11:47:03;4.18;;;1.58;;
48526;SDS011;34317;51.660;5.824;2023-03-23T11:49:47;4.30;;;1.67;;
48526;SDS011;34317;51.660;5.824;2023-03-23T11:52:25;7.18;;;1.60;;
48526;SDS011;34317;51.660;5.824;2023-03-23T11:55:00;5.45;;;1.73;;
48526;SDS011;34317;51.660;5.824;2023-03-23T11:57:36;5.90;;;1.60;;
48526;SDS011;34317;51.660;5.824;2023-03-23T12:00:10;6.35;;;1.60;;
48526;SDS011;34317;51.660;5.824;2023-03-23T12:02:49;6.22;;;1.77;;
48526;SDS011;34317;51.660;5.824;2023-03-23T12:10:29;4.32;;;1.30;;
48526;SDS011;34317;51.660;5.824;2023-03-23T12:13:15;4.75;;;1.40;;
48526;SDS011;34317;51.660;5.824;2023-03-23T12:15:45;4.93;;;1.30;;
48526;SDS011;34317;51.660;5.824;2023-03-23T12:19:08;6.28;;;1.15;;
48526;SDS011;34317;51.660;5.824;2023-03-23T12:21:38;3.65;;;1.20;;
48526;SDS011;34317;51.660;5.824;2023-03-23T12:27:07;3.13;;;1.33;;
48526;SDS011;34317;51.660;5.824;2023-03-23T12:32:20;4.50;;;1.52;;
48526;SDS011;34317;51.660;5.824;2023-03-23T12:48:46;4.65;;;1.45;;
48526;SDS011;34317;51.660;5.824;2023-03-23T12:56:34;6.22;;;1.50;;
48526;SDS011;34317;51.660;5.824;2023-03-23T13:01:55;5.37;;;1.70;;
48526;SDS011;34317;51.660;5.824;2023-03-23T13:07:00;4.13;;;1.67;;
48526;SDS011;34317;51.660;5.824;2023-03-23T13:12:22;6.32;;;1.80;;
48526;SDS011;34317;51.660;5.824;2023-03-23T13:15:03;4.47;;;1.40;;
48526;SDS011;34317;51.660;5.824;2023-03-23T13:20:43;6.13;;;1.70;;
48526;SDS011;34317;51.660;5.824;2023-03-23T13:23:22;6.25;;;1.52;;
48526;SDS011;34317;51.660;5.824;2023-03-23T13:25:54;6.78;;;1.48;;
48526;SDS011;34317;51.660;5.824;2023-03-23T13:28:23;5.65;;;1.70;;
48526;SDS011;34317;51.660;5.824;2023-03-23T13:33:28;5.20;;;1.60;;
48526;SDS011;34317;51.660;5.824;2023-03-23T13:36:03;3.58;;;1.45;;
48526;SDS011;34317;51.660;5.824;2023-03-23T13:38:34;5.70;;;1.65;;
48526;SDS011;34317;51.660;5.824;2023-03-23T13:41:08;6.60;;;1.92;;
48526;SDS011;34317;51.660;5.824;2023-03-23T13:43:37;8.13;;;1.70;;
48526;SDS011;34317;51.660;5.824;2023-03-23T13:46:09;7.95;;;1.90;;
48526;SDS011;34317;51.660;5.824;2023-03-23T13:54:14;7.00;;;2.00;;
48526;SDS011;34317;51.660;5.824;2023-03-23T13:57:00;9.07;;;1.77;;
48526;SDS011;34317;51.660;5.824;2023-03-23T13:59:33;4.63;;;1.70;;
48526;SDS011;34317;51.660;5.824;2023-03-23T14:05:30;5.07;;;1.70;;
48526;SDS011;34317;51.660;5.824;2023-03-23T14:08:01;9.07;;;2.03;;
48526;SDS011;34317;51.660;5.824;2023-03-23T14:10:33;8.73;;;2.20;;
48526;SDS011;34317;51.660;5.824;2023-03-23T14:13:01;5.60;;;1.77;;
48526;SDS011;34317;51.660;5.824;2023-03-23T14:15:37;4.05;;;1.45;;
48526;SDS011;34317;51.660;5.824;2023-03-23T14:18:11;6.25;;;1.55;;
48526;SDS011;34317;51.660;5.824;2023-03-23T14:20:40;4.93;;;1.45;;
48526;SDS011;34317;51.660;5.824;2023-03-23T14:23:15;5.50;;;1.40;;
48526;SDS011;34317;51.660;5.824;2023-03-23T14:25:43;5.57;;;1.55;;
48526;SDS011;34317;51.660;5.824;2023-03-23T14:28:19;4.07;;;1.58;;
48526;SDS011;34317;51.660;5.824;2023-03-23T14:30:49;4.53;;;1.30;;
48526;SDS011;34317;51.660;5.824;2023-03-23T14:33:19;8.32;;;1.85;;
48526;SDS011;34317;51.660;5.824;2023-03-23T14:35:46;4.45;;;1.42;;
48526;SDS011;34317;51.660;5.824;2023-03-23T14:38:16;5.40;;;1.50;;
48526;SDS011;34317;51.660;5.824;2023-03-23T14:40:49;3.73;;;1.40;;
48526;SDS011;34317;51.660;5.824;2023-03-23T14:43:16;4.15;;;1.45;;
48526;SDS011;34317;51.660;5.824;2023-03-23T14:45:45;5.90;;;1.75;;
48526;SDS011;34317;51.660;5.824;2023-03-23T14:48:15;3.85;;;1.58;;
48526;SDS011;34317;51.660;5.824;2023-03-23T14:50:47;3.22;;;1.40;;
48526;SDS011;34317;51.660;5.824;2023-03-23T14:53:26;3.78;;;1.70;;
48526;SDS011;34317;51.660;5.824;2023-03-23T14:56:23;5.18;;;1.67;;
48526;SDS011;34317;51.660;5.824;2023-03-23T14:59:06;6.10;;;1.67;;
48526;SDS011;34317;51.660;5.824;2023-03-23T15:01:36;6.47;;;2.22;;
48526;SDS011;34317;51.660;5.824;2023-03-23T15:06:33;3.42;;;1.45;;
48526;SDS011;34317;51.660;5.824;2023-03-23T15:09:04;3.13;;;1.40;;
48526;SDS011;34317;51.660;5.824;2023-03-23T15:11:38;4.50;;;1.80;;
48526;SDS011;34317;51.660;5.824;2023-03-23T15:14:13;5.43;;;1.80;;
48526;SDS011;34317;51.660;5.824;2023-03-23T15:16:45;5.65;;;1.95;;
48526;SDS011;34317;51.660;5.824;2023-03-23T15:19:16;8.65;;;2.45;;
48526;SDS011;34317;51.660;5.824;2023-03-23T15:24:34;4.05;;;1.67;;
48526;SDS011;34317;51.660;5.824;2023-03-23T15:27:09;8.30;;;2.30;;
48526;SDS011;34317;51.660;5.824;2023-03-23T15:29:52;5.53;;;2.13;;
48526;SDS011;34317;51.660;5.824;2023-03-23T15:32:24;6.10;;;1.75;;
48526;SDS011;34317;51.660;5.824;2023-03-23T15:34:53;7.63;;;1.80;;
48526;SDS011;34317;51.660;5.824;2023-03-23T15:37:23;3.78;;;1.60;;
48526;SDS011;34317;51.660;5.824;2023-03-23T15:39:52;5.50;;;1.60;;
48526;SDS011;34317;51.660;5.824;2023-03-23T15:42:23;6.25;;;2.10;;
48526;SDS011;34317;51.660;5.824;2023-03-23T15:45:19;6.35;;;2.08;;
48526;SDS011;34317;51.660;5.824;2023-03-23T15:47:50;5.25;;;1.90;;
48526;SDS011;34317;51.660;5.824;2023-03-23T15:50:32;4.80;;;2.13;;
48526;SDS011;34317;51.660;5.824;2023-03-23T15:53:00;6.95;;;2.22;;
48526;SDS011;34317;51.660;5.824;2023-03-23T15:55:38;6.30;;;2.10;;
48526;SDS011;34317;51.660;5.824;2023-03-23T15:58:09;6.82;;;2.22;;
48526;SDS011;34317;51.660;5.824;2023-03-23T16:00:38;5.72;;;1.90;;
48526;SDS011;34317;51.660;5.824;2023-03-23T16:03:07;5.68;;;1.98;;
48526;SDS011;34317;51.660;5.824;2023-03-23T16:05:38;7.35;;;1.90;;
48526;SDS011;34317;51.660;5.824;2023-03-23T16:08:07;5.55;;;1.90;;
48526;SDS011;34317;51.660;5.824;2023-03-23T16:10:37;4.47;;;1.92;;
48526;SDS011;34317;51.660;5.824;2023-03-23T16:13:04;10.27;;;2.40;;
48526;SDS011;34317;51.660;5.824;2023-03-23T16:15:32;9.45;;;2.45;;
48526;SDS011;34317;51.660;5.824;2023-03-23T16:18:00;4.90;;;1.92;;
48526;SDS011;34317;51.660;5.824;2023-03-23T16:20:27;6.35;;;2.20;;
48526;SDS011;34317;51.660;5.824;2023-03-23T16:22:56;7.53;;;2.35;;
48526;SDS011;34317;51.660;5.824;2023-03-23T16:25:23;5.50;;;1.90;;
48526;SDS011;34317;51.660;5.824;2023-03-23T16:27:50;6.30;;;1.90;;
48526;SDS011;34317;51.660;5.824;2023-03-23T16:32:47;7.05;;;2.05;;
48526;SDS011;34317;51.660;5.824;2023-03-23T16:35:15;5.38;;;1.95;;
48526;SDS011;34317;51.660;5.824;2023-03-23T16:37:43;5.72;;;1.90;;
48526;SDS011;34317;51.660;5.824;2023-03-23T16:40:15;7.50;;;2.13;;
48526;SDS011;34317;51.660;5.824;2023-03-23T16:42:43;5.43;;;2.05;;
48526;SDS011;34317;51.660;5.824;2023-03-23T16:45:11;8.07;;;2.40;;
48526;SDS011;34317;51.660;5.824;2023-03-23T16:47:39;7.60;;;2.40;;
48526;SDS011;34317;51.660;5.824;2023-03-23T16:50:08;6.75;;;2.10;;
48526;SDS011;34317;51.660;5.824;2023-03-23T16:52:38;6.60;;;2.13;;
48526;SDS011;34317;51.660;5.824;2023-03-23T16:55:13;5.45;;;1.63;;
48526;SDS011;34317;51.660;5.824;2023-03-23T16:57:42;5.30;;;1.75;;
48526;SDS011;34317;51.660;5.824;2023-03-23T17:00:10;8.52;;;2.30;;
48526;SDS011;34317;51.660;5.824;2023-03-23T17:02:41;8.60;;;1.90;;
48526;SDS011;34317;51.660;5.824;2023-03-23T17:05:09;6.80;;;2.00;;
48526;SDS011;34317;51.660;5.824;2023-03-23T17:07:38;5.20;;;1.85;;
48526;SDS011;34317;51.660;5.824;2023-03-23T17:10:06;9.27;;;2.33;;
48526;SDS011;34317;51.660;5.824;2023-03-23T17:12:35;8.20;;;2.53;;
48526;SDS011;34317;51.660;5.824;2023-03-23T17:15:02;7.13;;;2.15;;
48526;SDS011;34317;51.660;5.824;2023-03-23T17:17:30;5.88;;;2.20;;
48526;SDS011;34317;51.660;5.824;2023-03-23T17:19:57;7.53;;;2.38;;
48526;SDS011;34317;51.660;5.824;2023-03-23T17:22:25;8.73;;;2.50;;
48526;SDS011;34317;51.660;5.824;2023-03-23T17:24:53;7.95;;;2.42;;